Página principal
METAR-TAF:

METAR-TAF

Aeroportos :

Aeroporto Internacional Hato

Curaçao, Antilhas Neerlandesas

latitude: 12-12N, longitude: 068-58W, altura: 9 m

Observação actual do tempo

O boletim foi feito há 26 minutos, às 06:00 UTC
Vento 12 kt de este
Temperatura 27°C
Humidade 79%
Pressão 1012 hPa
Visibilidade 10 km ou mais

METAR: TNCC 220600Z AUTO 10012KT 9999 NCD 27/23 Q1012

Hora: 02:26 (06:26 UTC)

Previsão

O boletim foi feito há 2 horas e 26 minutos, às 04:00 UTC
Previsão válida de 22 às 06 UTC a 23 às 06 UTC
Vento 10 kt de este
Visibilidade 10 km ou mais
Nuvens dispersasa uma altura de 1800 ft
Temporariamente
de 22 às 06 UTC a 22 às 12 UTC
Nuvens fragmentadasa uma altura de 1400 ft

TAF: TNCC 220400Z 2206/2306 10010KT 9999 SCT018 TEMPO 2206/2212 BKN014

Observações e previsões do tempo de mais de 4000 aeroportos (mensagens METAR e TAF).

As estações disponíveis são os pontos amarelos e vermelhos sobre o mapa.

Mova o rato sobre o mapa para ver o nome da estação.

Depois clique no ponto para visualizar as observações e previsões meteorológicas.

Para alterar o mapa : clique nos botões verdes com uma cruz preta para aumentar o zoom; no botão verde com uma pitada de zoom; ou nas setas verdes para mapas adjacentes.


METAR-TAF: